sensor_id;sensor_type;location;lat;lon;timestamp;temperature;humidity
35457;DHT22;21575;51.538;-0.084;2022-08-01T00:01:52;19.70;99.90
35457;DHT22;21575;51.538;-0.084;2022-08-01T00:04:18;19.60;99.90
35457;DHT22;21575;51.538;-0.084;2022-08-01T00:06:43;19.60;99.90
35457;DHT22;21575;51.538;-0.084;2022-08-01T00:09:09;19.60;99.90
35457;DHT22;21575;51.538;-0.084;2022-08-01T00:11:35;19.60;99.90
35457;DHT22;21575;51.538;-0.084;2022-08-01T00:14:00;19.60;99.90
35457;DHT22;21575;51.538;-0.084;2022-08-01T00:16:26;19.70;99.90
35457;DHT22;21575;51.538;-0.084;2022-08-01T00:18:52;19.60;99.90
35457;DHT22;21575;51.538;-0.084;2022-08-01T00:21:18;19.60;99.90
35457;DHT22;21575;51.538;-0.084;2022-08-01T00:23:44;19.60;99.90
35457;DHT22;21575;51.538;-0.084;2022-08-01T00:26:11;19.60;99.90
35457;DHT22;21575;51.538;-0.084;2022-08-01T00:28:37;19.50;99.90
35457;DHT22;21575;51.538;-0.084;2022-08-01T00:31:03;19.50;99.90
35457;DHT22;21575;51.538;-0.084;2022-08-01T00:33:29;19.50;99.90
35457;DHT22;21575;51.538;-0.084;2022-08-01T00:35:54;19.50;99.90
35457;DHT22;21575;51.538;-0.084;2022-08-01T00:38:20;19.50;99.90
35457;DHT22;21575;51.538;-0.084;2022-08-01T00:40:46;19.50;99.90
35457;DHT22;21575;51.538;-0.084;2022-08-01T00:43:12;19.40;99.90
35457;DHT22;21575;51.538;-0.084;2022-08-01T00:45:37;19.40;99.90
35457;DHT22;21575;51.538;-0.084;2022-08-01T00:48:03;19.40;99.90
35457;DHT22;21575;51.538;-0.084;2022-08-01T00:50:29;19.40;99.90
35457;DHT22;21575;51.538;-0.084;2022-08-01T00:52:55;19.40;99.90
35457;DHT22;21575;51.538;-0.084;2022-08-01T00:55:23;19.40;99.90
35457;DHT22;21575;51.538;-0.084;2022-08-01T00:57:49;19.40;99.90
35457;DHT22;21575;51.538;-0.084;2022-08-01T01:00:15;19.40;99.90
35457;DHT22;21575;51.538;-0.084;2022-08-01T01:02:41;19.40;99.90
35457;DHT22;21575;51.538;-0.084;2022-08-01T01:05:07;19.40;99.90
35457;DHT22;21575;51.538;-0.084;2022-08-01T01:10:37;19.40;99.90
35457;DHT22;21575;51.538;-0.084;2022-08-01T01:13:23;19.40;99.90
35457;DHT22;21575;51.538;-0.084;2022-08-01T01:15:59;19.30;99.90
35457;DHT22;21575;51.538;-0.084;2022-08-01T01:18:43;19.30;99.90
35457;DHT22;21575;51.538;-0.084;2022-08-01T01:32:04;19.20;99.90
35457;DHT22;21575;51.538;-0.084;2022-08-01T01:34:33;19.20;99.90
35457;DHT22;21575;51.538;-0.084;2022-08-01T01:37:02;19.20;99.90
35457;DHT22;21575;51.538;-0.084;2022-08-01T01:39:30;19.10;99.90
35457;DHT22;21575;51.538;-0.084;2022-08-01T01:41:58;19.10;99.90
35457;DHT22;21575;51.538;-0.084;2022-08-01T01:44:26;19.10;99.90
35457;DHT22;21575;51.538;-0.084;2022-08-01T01:46:53;19.10;99.90
35457;DHT22;21575;51.538;-0.084;2022-08-01T01:49:24;19.00;99.90
35457;DHT22;21575;51.538;-0.084;2022-08-01T01:51:53;19.00;99.90
35457;DHT22;21575;51.538;-0.084;2022-08-01T01:54:20;19.10;99.90
35457;DHT22;21575;51.538;-0.084;2022-08-01T01:56:49;19.00;99.90
35457;DHT22;21575;51.538;-0.084;2022-08-01T01:59:27;19.00;99.90
35457;DHT22;21575;51.538;-0.084;2022-08-01T02:01:57;19.00;99.90
35457;DHT22;21575;51.538;-0.084;2022-08-01T02:04:24;19.00;99.90
35457;DHT22;21575;51.538;-0.084;2022-08-01T02:06:51;19.00;99.90
35457;DHT22;21575;51.538;-0.084;2022-08-01T02:09:20;19.00;99.90
35457;DHT22;21575;51.538;-0.084;2022-08-01T02:11:48;18.90;99.90
35457;DHT22;21575;51.538;-0.084;2022-08-01T02:14:17;18.90;99.90
35457;DHT22;21575;51.538;-0.084;2022-08-01T02:16:47;18.90;99.90
35457;DHT22;21575;51.538;-0.084;2022-08-01T02:19:14;18.80;99.90
35457;DHT22;21575;51.538;-0.084;2022-08-01T02:22:14;18.80;99.90
35457;DHT22;21575;51.538;-0.084;2022-08-01T02:25:06;18.80;99.90
35457;DHT22;21575;51.538;-0.084;2022-08-01T02:27:42;18.80;99.90
35457;DHT22;21575;51.538;-0.084;2022-08-01T02:30:12;18.70;99.90
35457;DHT22;21575;51.538;-0.084;2022-08-01T02:32:51;18.70;99.90
35457;DHT22;21575;51.538;-0.084;2022-08-01T02:35:26;18.70;99.90
35457;DHT22;21575;51.538;-0.084;2022-08-01T02:37:53;18.70;99.90
35457;DHT22;21575;51.538;-0.084;2022-08-01T02:40:20;18.70;99.90
35457;DHT22;21575;51.538;-0.084;2022-08-01T02:42:50;18.70;99.90
35457;DHT22;21575;51.538;-0.084;2022-08-01T02:45:21;18.70;99.90
35457;DHT22;21575;51.538;-0.084;2022-08-01T02:47:50;18.70;99.90
35457;DHT22;21575;51.538;-0.084;2022-08-01T02:50:17;18.70;99.90
35457;DHT22;21575;51.538;-0.084;2022-08-01T02:52:48;18.70;99.90
35457;DHT22;21575;51.538;-0.084;2022-08-01T02:55:17;18.70;99.90
35457;DHT22;21575;51.538;-0.084;2022-08-01T02:57:44;18.70;99.90
35457;DHT22;21575;51.538;-0.084;2022-08-01T03:00:12;18.70;99.90
35457;DHT22;21575;51.538;-0.084;2022-08-01T03:02:38;18.60;99.90
35457;DHT22;21575;51.538;-0.084;2022-08-01T03:05:05;18.60;99.90
35457;DHT22;21575;51.538;-0.084;2022-08-01T03:07:33;18.60;99.90
35457;DHT22;21575;51.538;-0.084;2022-08-01T03:10:00;18.70;99.90
35457;DHT22;21575;51.538;-0.084;2022-08-01T03:12:28;18.60;99.90
35457;DHT22;21575;51.538;-0.084;2022-08-01T03:14:56;18.60;99.90
35457;DHT22;21575;51.538;-0.084;2022-08-01T03:17:25;18.60;99.90
35457;DHT22;21575;51.538;-0.084;2022-08-01T03:19:52;18.60;99.90
35457;DHT22;21575;51.538;-0.084;2022-08-01T03:22:18;18.50;99.90
35457;DHT22;21575;51.538;-0.084;2022-08-01T03:24:48;18.50;99.90
35457;DHT22;21575;51.538;-0.084;2022-08-01T03:27:15;18.40;99.90
35457;DHT22;21575;51.538;-0.084;2022-08-01T03:29:44;18.40;99.90
35457;DHT22;21575;51.538;-0.084;2022-08-01T03:32:11;18.30;99.90
35457;DHT22;21575;51.538;-0.084;2022-08-01T03:34:38;18.20;99.90
35457;DHT22;21575;51.538;-0.084;2022-08-01T03:39:52;18.10;99.90
35457;DHT22;21575;51.538;-0.084;2022-08-01T03:42:24;18.10;99.90
35457;DHT22;21575;51.538;-0.084;2022-08-01T03:44:54;18.00;99.90
35457;DHT22;21575;51.538;-0.084;2022-08-01T03:47:26;18.00;99.90
35457;DHT22;21575;51.538;-0.084;2022-08-01T03:49:55;18.00;99.90
35457;DHT22;21575;51.538;-0.084;2022-08-01T03:52:22;18.00;99.90
35457;DHT22;21575;51.538;-0.084;2022-08-01T03:54:52;18.00;99.90
35457;DHT22;21575;51.538;-0.084;2022-08-01T03:57:20;17.90;99.90
35457;DHT22;21575;51.538;-0.084;2022-08-01T03:59:46;17.90;99.90
35457;DHT22;21575;51.538;-0.084;2022-08-01T04:02:12;17.90;99.90
35457;DHT22;21575;51.538;-0.084;2022-08-01T04:04:40;17.90;99.90
35457;DHT22;21575;51.538;-0.084;2022-08-01T04:07:21;17.90;99.90
35457;DHT22;21575;51.538;-0.084;2022-08-01T04:09:47;17.90;99.90
35457;DHT22;21575;51.538;-0.084;2022-08-01T04:12:12;17.90;99.90
35457;DHT22;21575;51.538;-0.084;2022-08-01T04:14:38;17.90;99.90
35457;DHT22;21575;51.538;-0.084;2022-08-01T04:17:04;17.90;99.90
35457;DHT22;21575;51.538;-0.084;2022-08-01T04:19:29;17.90;99.90
35457;DHT22;21575;51.538;-0.084;2022-08-01T04:21:55;17.90;99.90
35457;DHT22;21575;51.538;-0.084;2022-08-01T04:24:22;17.90;99.90
35457;DHT22;21575;51.538;-0.084;2022-08-01T04:26:50;17.90;99.90
35457;DHT22;21575;51.538;-0.084;2022-08-01T04:29:17;17.90;99.90
35457;DHT22;21575;51.538;-0.084;2022-08-01T04:31:46;17.90;99.90
35457;DHT22;21575;51.538;-0.084;2022-08-01T04:34:16;17.90;99.90
35457;DHT22;21575;51.538;-0.084;2022-08-01T04:36:43;17.90;99.90
35457;DHT22;21575;51.538;-0.084;2022-08-01T04:39:10;17.90;99.90
35457;DHT22;21575;51.538;-0.084;2022-08-01T04:41:37;17.90;99.90
35457;DHT22;21575;51.538;-0.084;2022-08-01T04:44:04;17.90;99.90
35457;DHT22;21575;51.538;-0.084;2022-08-01T04:46:31;17.90;99.90
35457;DHT22;21575;51.538;-0.084;2022-08-01T04:48:58;17.90;99.90
35457;DHT22;21575;51.538;-0.084;2022-08-01T04:51:23;17.90;99.90
35457;DHT22;21575;51.538;-0.084;2022-08-01T04:53:50;17.90;99.90
35457;DHT22;21575;51.538;-0.084;2022-08-01T04:56:19;18.00;99.90
35457;DHT22;21575;51.538;-0.084;2022-08-01T04:58:46;18.00;99.90
35457;DHT22;21575;51.538;-0.084;2022-08-01T05:01:12;18.00;99.90
35457;DHT22;21575;51.538;-0.084;2022-08-01T05:03:38;18.00;99.90
35457;DHT22;21575;51.538;-0.084;2022-08-01T05:06:03;18.10;99.90
35457;DHT22;21575;51.538;-0.084;2022-08-01T05:08:29;18.10;99.90
35457;DHT22;21575;51.538;-0.084;2022-08-01T05:10:55;18.10;99.90
35457;DHT22;21575;51.538;-0.084;2022-08-01T05:13:21;18.20;99.90
35457;DHT22;21575;51.538;-0.084;2022-08-01T05:15:47;18.20;99.90
35457;DHT22;21575;51.538;-0.084;2022-08-01T05:18:12;18.20;99.90
35457;DHT22;21575;51.538;-0.084;2022-08-01T05:20:38;18.20;99.90
35457;DHT22;21575;51.538;-0.084;2022-08-01T05:23:04;18.20;99.90
35457;DHT22;21575;51.538;-0.084;2022-08-01T05:25:30;18.20;99.90
35457;DHT22;21575;51.538;-0.084;2022-08-01T05:27:56;18.20;99.90
35457;DHT22;21575;51.538;-0.084;2022-08-01T05:30:21;18.20;99.90
35457;DHT22;21575;51.538;-0.084;2022-08-01T05:32:47;18.20;99.90
35457;DHT22;21575;51.538;-0.084;2022-08-01T05:35:13;18.30;99.90
35457;DHT22;21575;51.538;-0.084;2022-08-01T05:37:38;18.30;99.90
35457;DHT22;21575;51.538;-0.084;2022-08-01T05:40:05;18.30;99.90
35457;DHT22;21575;51.538;-0.084;2022-08-01T05:42:31;18.40;99.90
35457;DHT22;21575;51.538;-0.084;2022-08-01T05:44:56;18.50;99.90
35457;DHT22;21575;51.538;-0.084;2022-08-01T05:47:22;18.60;99.90
35457;DHT22;21575;51.538;-0.084;2022-08-01T05:49:47;18.60;99.90
35457;DHT22;21575;51.538;-0.084;2022-08-01T05:52:13;18.70;99.90
35457;DHT22;21575;51.538;-0.084;2022-08-01T05:54:39;18.70;99.90
35457;DHT22;21575;51.538;-0.084;2022-08-01T05:57:05;18.80;99.90
35457;DHT22;21575;51.538;-0.084;2022-08-01T05:59:31;18.90;99.90
35457;DHT22;21575;51.538;-0.084;2022-08-01T06:01:57;18.90;99.90
35457;DHT22;21575;51.538;-0.084;2022-08-01T06:04:22;19.00;99.90
35457;DHT22;21575;51.538;-0.084;2022-08-01T06:06:48;19.00;99.90
35457;DHT22;21575;51.538;-0.084;2022-08-01T06:09:14;19.00;99.90
35457;DHT22;21575;51.538;-0.084;2022-08-01T06:11:40;19.10;99.90
35457;DHT22;21575;51.538;-0.084;2022-08-01T06:14:06;19.20;99.90
35457;DHT22;21575;51.538;-0.084;2022-08-01T06:16:31;19.30;99.90
35457;DHT22;21575;51.538;-0.084;2022-08-01T06:18:57;19.30;99.90
35457;DHT22;21575;51.538;-0.084;2022-08-01T06:21:23;19.40;99.90
35457;DHT22;21575;51.538;-0.084;2022-08-01T06:23:48;19.50;99.90
35457;DHT22;21575;51.538;-0.084;2022-08-01T06:26:17;19.60;99.90
35457;DHT22;21575;51.538;-0.084;2022-08-01T06:28:43;19.60;99.90
35457;DHT22;21575;51.538;-0.084;2022-08-01T06:31:09;19.70;99.90
35457;DHT22;21575;51.538;-0.084;2022-08-01T06:33:36;19.80;99.90
35457;DHT22;21575;51.538;-0.084;2022-08-01T06:36:02;19.70;99.90
35457;DHT22;21575;51.538;-0.084;2022-08-01T06:38:28;19.80;99.90
35457;DHT22;21575;51.538;-0.084;2022-08-01T06:40:54;19.80;99.90
35457;DHT22;21575;51.538;-0.084;2022-08-01T06:43:19;19.90;99.90
35457;DHT22;21575;51.538;-0.084;2022-08-01T06:45:49;19.80;99.90
35457;DHT22;21575;51.538;-0.084;2022-08-01T06:48:15;19.90;99.90
35457;DHT22;21575;51.538;-0.084;2022-08-01T06:50:40;19.90;99.90
35457;DHT22;21575;51.538;-0.084;2022-08-01T06:53:06;20.00;99.90
35457;DHT22;21575;51.538;-0.084;2022-08-01T06:55:32;20.00;99.90
35457;DHT22;21575;51.538;-0.084;2022-08-01T06:57:57;20.00;99.90
35457;DHT22;21575;51.538;-0.084;2022-08-01T07:00:25;20.00;99.90
35457;DHT22;21575;51.538;-0.084;2022-08-01T07:02:55;20.00;99.90
35457;DHT22;21575;51.538;-0.084;2022-08-01T07:05:22;20.00;99.90
35457;DHT22;21575;51.538;-0.084;2022-08-01T07:07:47;19.90;99.90
35457;DHT22;21575;51.538;-0.084;2022-08-01T07:10:13;19.90;99.90
35457;DHT22;21575;51.538;-0.084;2022-08-01T07:12:39;19.90;99.90
35457;DHT22;21575;51.538;-0.084;2022-08-01T07:15:07;19.80;99.90
35457;DHT22;21575;51.538;-0.084;2022-08-01T07:17:40;19.90;99.90
35457;DHT22;21575;51.538;-0.084;2022-08-01T07:20:11;19.90;99.90
35457;DHT22;21575;51.538;-0.084;2022-08-01T07:22:37;19.90;99.90
35457;DHT22;21575;51.538;-0.084;2022-08-01T07:25:06;19.80;99.90
35457;DHT22;21575;51.538;-0.084;2022-08-01T07:27:33;19.90;99.90
35457;DHT22;21575;51.538;-0.084;2022-08-01T07:29:58;19.80;99.90
35457;DHT22;21575;51.538;-0.084;2022-08-01T07:32:24;19.80;99.90
35457;DHT22;21575;51.538;-0.084;2022-08-01T07:34:50;19.80;99.90
35457;DHT22;21575;51.538;-0.084;2022-08-01T07:37:16;19.80;99.90
35457;DHT22;21575;51.538;-0.084;2022-08-01T07:39:41;19.80;99.90
35457;DHT22;21575;51.538;-0.084;2022-08-01T07:42:07;19.80;99.90
35457;DHT22;21575;51.538;-0.084;2022-08-01T07:44:33;19.90;99.90
35457;DHT22;21575;51.538;-0.084;2022-08-01T07:46:59;20.00;99.90
35457;DHT22;21575;51.538;-0.084;2022-08-01T07:49:25;20.00;99.90
35457;DHT22;21575;51.538;-0.084;2022-08-01T07:51:50;20.00;99.90
35457;DHT22;21575;51.538;-0.084;2022-08-01T07:54:16;20.10;99.90
35457;DHT22;21575;51.538;-0.084;2022-08-01T07:56:41;20.20;99.90
35457;DHT22;21575;51.538;-0.084;2022-08-01T07:59:07;20.30;99.90
35457;DHT22;21575;51.538;-0.084;2022-08-01T08:01:33;20.40;99.90
35457;DHT22;21575;51.538;-0.084;2022-08-01T08:03:58;20.60;99.90
35457;DHT22;21575;51.538;-0.084;2022-08-01T08:06:24;20.80;99.90
35457;DHT22;21575;51.538;-0.084;2022-08-01T08:08:50;20.90;99.90
35457;DHT22;21575;51.538;-0.084;2022-08-01T08:11:15;21.00;99.90
35457;DHT22;21575;51.538;-0.084;2022-08-01T08:13:41;21.10;99.90
35457;DHT22;21575;51.538;-0.084;2022-08-01T08:16:07;21.20;99.90
35457;DHT22;21575;51.538;-0.084;2022-08-01T08:18:32;21.40;99.90
35457;DHT22;21575;51.538;-0.084;2022-08-01T08:20:58;21.60;99.90
35457;DHT22;21575;51.538;-0.084;2022-08-01T08:23:23;21.80;99.90
35457;DHT22;21575;51.538;-0.084;2022-08-01T08:26:08;21.90;99.90
35457;DHT22;21575;51.538;-0.084;2022-08-01T08:28:33;22.00;99.90
35457;DHT22;21575;51.538;-0.084;2022-08-01T08:30:59;22.10;99.90
35457;DHT22;21575;51.538;-0.084;2022-08-01T08:33:24;22.10;99.90
35457;DHT22;21575;51.538;-0.084;2022-08-01T08:35:50;22.20;99.90
35457;DHT22;21575;51.538;-0.084;2022-08-01T08:38:16;22.20;99.90
35457;DHT22;21575;51.538;-0.084;2022-08-01T08:40:41;22.30;99.90
35457;DHT22;21575;51.538;-0.084;2022-08-01T08:43:07;22.20;99.90
35457;DHT22;21575;51.538;-0.084;2022-08-01T08:45:33;22.30;99.90
35457;DHT22;21575;51.538;-0.084;2022-08-01T08:47:59;22.30;99.90
35457;DHT22;21575;51.538;-0.084;2022-08-01T08:50:26;22.30;99.90
35457;DHT22;21575;51.538;-0.084;2022-08-01T08:52:55;22.50;99.90
35457;DHT22;21575;51.538;-0.084;2022-08-01T08:55:22;22.60;99.90
35457;DHT22;21575;51.538;-0.084;2022-08-01T08:57:48;22.70;99.90
35457;DHT22;21575;51.538;-0.084;2022-08-01T09:00:15;22.80;99.90
35457;DHT22;21575;51.538;-0.084;2022-08-01T09:02:46;22.90;99.90
35457;DHT22;21575;51.538;-0.084;2022-08-01T09:05:14;23.10;99.90
35457;DHT22;21575;51.538;-0.084;2022-08-01T09:07:40;23.20;99.90
35457;DHT22;21575;51.538;-0.084;2022-08-01T09:10:06;23.20;99.90
35457;DHT22;21575;51.538;-0.084;2022-08-01T09:12:32;23.20;99.90
35457;DHT22;21575;51.538;-0.084;2022-08-01T09:14:58;23.20;99.90
35457;DHT22;21575;51.538;-0.084;2022-08-01T09:17:24;23.20;99.90
35457;DHT22;21575;51.538;-0.084;2022-08-01T09:19:55;23.20;99.90
35457;DHT22;21575;51.538;-0.084;2022-08-01T09:22:23;23.20;99.90
35457;DHT22;21575;51.538;-0.084;2022-08-01T09:25:08;23.30;99.90
35457;DHT22;21575;51.538;-0.084;2022-08-01T09:27:35;23.30;99.90
35457;DHT22;21575;51.538;-0.084;2022-08-01T09:30:12;23.30;99.90
35457;DHT22;21575;51.538;-0.084;2022-08-01T09:33:01;23.30;99.90
35457;DHT22;21575;51.538;-0.084;2022-08-01T09:35:33;23.30;99.90
35457;DHT22;21575;51.538;-0.084;2022-08-01T09:38:14;23.40;99.90
35457;DHT22;21575;51.538;-0.084;2022-08-01T09:40:47;23.50;99.90
35457;DHT22;21575;51.538;-0.084;2022-08-01T09:43:13;23.50;99.90
35457;DHT22;21575;51.538;-0.084;2022-08-01T09:45:39;23.60;99.90
35457;DHT22;21575;51.538;-0.084;2022-08-01T09:48:08;23.60;99.90
35457;DHT22;21575;51.538;-0.084;2022-08-01T09:50:48;23.70;99.90
35457;DHT22;21575;51.538;-0.084;2022-08-01T09:53:14;23.70;99.90
35457;DHT22;21575;51.538;-0.084;2022-08-01T09:55:41;23.80;99.90
35457;DHT22;21575;51.538;-0.084;2022-08-01T09:58:07;23.90;99.90
35457;DHT22;21575;51.538;-0.084;2022-08-01T10:00:34;23.90;99.90
35457;DHT22;21575;51.538;-0.084;2022-08-01T10:05:44;24.10;99.90
35457;DHT22;21575;51.538;-0.084;2022-08-01T10:08:10;24.20;99.90
35457;DHT22;21575;51.538;-0.084;2022-08-01T10:10:39;24.30;99.90
35457;DHT22;21575;51.538;-0.084;2022-08-01T10:13:05;24.30;99.90
35457;DHT22;21575;51.538;-0.084;2022-08-01T10:15:31;24.40;99.90
35457;DHT22;21575;51.538;-0.084;2022-08-01T10:18:02;24.40;99.90
35457;DHT22;21575;51.538;-0.084;2022-08-01T10:20:33;24.40;99.90
35457;DHT22;21575;51.538;-0.084;2022-08-01T10:23:01;24.30;99.90
35457;DHT22;21575;51.538;-0.084;2022-08-01T10:25:29;24.30;99.90
35457;DHT22;21575;51.538;-0.084;2022-08-01T10:27:58;24.30;99.90
35457;DHT22;21575;51.538;-0.084;2022-08-01T10:30:26;24.30;99.90
35457;DHT22;21575;51.538;-0.084;2022-08-01T10:32:52;24.30;99.90
35457;DHT22;21575;51.538;-0.084;2022-08-01T10:35:18;24.30;99.90
35457;DHT22;21575;51.538;-0.084;2022-08-01T10:37:46;24.30;99.90
35457;DHT22;21575;51.538;-0.084;2022-08-01T10:40:13;24.40;99.90
35457;DHT22;21575;51.538;-0.084;2022-08-01T10:42:43;24.40;99.90
35457;DHT22;21575;51.538;-0.084;2022-08-01T10:45:12;24.40;99.90
35457;DHT22;21575;51.538;-0.084;2022-08-01T10:47:43;24.50;99.90
35457;DHT22;21575;51.538;-0.084;2022-08-01T10:53:14;24.60;99.90
35457;DHT22;21575;51.538;-0.084;2022-08-01T10:58:26;24.60;99.90
35457;DHT22;21575;51.538;-0.084;2022-08-01T11:03:39;24.80;99.90
35457;DHT22;21575;51.538;-0.084;2022-08-01T11:06:05;24.80;99.90
35457;DHT22;21575;51.538;-0.084;2022-08-01T11:08:31;24.90;99.90
35457;DHT22;21575;51.538;-0.084;2022-08-01T11:11:02;25.00;99.90
35457;DHT22;21575;51.538;-0.084;2022-08-01T11:14:05;25.00;99.90
35457;DHT22;21575;51.538;-0.084;2022-08-01T11:16:37;25.10;99.90
35457;DHT22;21575;51.538;-0.084;2022-08-01T11:19:04;25.20;99.90
35457;DHT22;21575;51.538;-0.084;2022-08-01T11:27:21;25.40;99.90
35457;DHT22;21575;51.538;-0.084;2022-08-01T11:30:21;25.50;99.90
35457;DHT22;21575;51.538;-0.084;2022-08-01T11:32:49;25.50;99.90
35457;DHT22;21575;51.538;-0.084;2022-08-01T11:35:15;25.70;99.90
35457;DHT22;21575;51.538;-0.084;2022-08-01T11:37:41;25.80;99.90
35457;DHT22;21575;51.538;-0.084;2022-08-01T11:40:28;25.80;99.90
35457;DHT22;21575;51.538;-0.084;2022-08-01T11:45:54;26.10;99.90
35457;DHT22;21575;51.538;-0.084;2022-08-01T11:48:22;26.10;99.90
35457;DHT22;21575;51.538;-0.084;2022-08-01T11:50:50;26.30;99.90
35457;DHT22;21575;51.538;-0.084;2022-08-01T11:53:17;26.50;99.90
35457;DHT22;21575;51.538;-0.084;2022-08-01T11:55:49;26.50;99.90
35457;DHT22;21575;51.538;-0.084;2022-08-01T11:58:24;26.60;99.90
35457;DHT22;21575;51.538;-0.084;2022-08-01T12:00:54;26.80;99.90
35457;DHT22;21575;51.538;-0.084;2022-08-01T12:03:27;26.80;99.90
35457;DHT22;21575;51.538;-0.084;2022-08-01T12:05:54;27.00;99.90
35457;DHT22;21575;51.538;-0.084;2022-08-01T12:08:27;27.10;99.90
35457;DHT22;21575;51.538;-0.084;2022-08-01T12:10:54;27.20;99.90
35457;DHT22;21575;51.538;-0.084;2022-08-01T12:13:20;27.20;99.90
35457;DHT22;21575;51.538;-0.084;2022-08-01T12:15:47;27.40;99.90
35457;DHT22;21575;51.538;-0.084;2022-08-01T12:18:13;27.40;99.90
35457;DHT22;21575;51.538;-0.084;2022-08-01T12:20:41;27.40;99.90
35457;DHT22;21575;51.538;-0.084;2022-08-01T12:23:10;27.40;99.90
35457;DHT22;21575;51.538;-0.084;2022-08-01T12:25:37;27.40;99.90
35457;DHT22;21575;51.538;-0.084;2022-08-01T12:28:05;27.40;99.90
35457;DHT22;21575;51.538;-0.084;2022-08-01T12:30:32;27.40;99.90
35457;DHT22;21575;51.538;-0.084;2022-08-01T12:33:03;27.30;99.90
35457;DHT22;21575;51.538;-0.084;2022-08-01T12:35:30;27.30;99.90
35457;DHT22;21575;51.538;-0.084;2022-08-01T12:38:01;27.30;99.90
35457;DHT22;21575;51.538;-0.084;2022-08-01T12:40:28;27.20;99.90
35457;DHT22;21575;51.538;-0.084;2022-08-01T12:42:57;27.20;99.90
35457;DHT22;21575;51.538;-0.084;2022-08-01T12:45:33;27.00;99.90
35457;DHT22;21575;51.538;-0.084;2022-08-01T12:47:59;26.90;99.90
35457;DHT22;21575;51.538;-0.084;2022-08-01T12:50:28;26.80;99.90
35457;DHT22;21575;51.538;-0.084;2022-08-01T12:52:55;26.80;99.90
35457;DHT22;21575;51.538;-0.084;2022-08-01T12:55:24;27.00;99.90
35457;DHT22;21575;51.538;-0.084;2022-08-01T12:58:06;27.10;99.90
35457;DHT22;21575;51.538;-0.084;2022-08-01T13:00:33;27.20;99.90
35457;DHT22;21575;51.538;-0.084;2022-08-01T13:03:05;27.20;99.90
35457;DHT22;21575;51.538;-0.084;2022-08-01T13:05:54;27.20;99.90
35457;DHT22;21575;51.538;-0.084;2022-08-01T13:10:50;27.20;99.90
35457;DHT22;21575;51.538;-0.084;2022-08-01T13:13:41;27.20;99.90
35457;DHT22;21575;51.538;-0.084;2022-08-01T13:16:08;27.20;99.90
35457;DHT22;21575;51.538;-0.084;2022-08-01T13:18:34;27.20;99.90
35457;DHT22;21575;51.538;-0.084;2022-08-01T13:21:15;27.20;99.90
35457;DHT22;21575;51.538;-0.084;2022-08-01T13:23:59;27.10;99.90
35457;DHT22;21575;51.538;-0.084;2022-08-01T13:26:50;27.10;99.90
35457;DHT22;21575;51.538;-0.084;2022-08-01T13:29:21;27.10;99.90
35457;DHT22;21575;51.538;-0.084;2022-08-01T13:31:48;27.10;99.90
35457;DHT22;21575;51.538;-0.084;2022-08-01T13:34:15;27.10;99.90
35457;DHT22;21575;51.538;-0.084;2022-08-01T13:36:41;27.20;99.90
35457;DHT22;21575;51.538;-0.084;2022-08-01T13:39:07;27.20;99.90
35457;DHT22;21575;51.538;-0.084;2022-08-01T13:41:52;27.30;99.90
35457;DHT22;21575;51.538;-0.084;2022-08-01T13:44:18;27.40;99.90
35457;DHT22;21575;51.538;-0.084;2022-08-01T13:46:44;27.50;99.90
35457;DHT22;21575;51.538;-0.084;2022-08-01T13:49:11;27.60;99.90
35457;DHT22;21575;51.538;-0.084;2022-08-01T13:51:37;27.70;99.90
35457;DHT22;21575;51.538;-0.084;2022-08-01T13:54:03;27.80;99.90
35457;DHT22;21575;51.538;-0.084;2022-08-01T13:56:29;27.90;99.90
35457;DHT22;21575;51.538;-0.084;2022-08-01T13:58:55;28.00;99.90
35457;DHT22;21575;51.538;-0.084;2022-08-01T14:01:21;28.10;99.90
35457;DHT22;21575;51.538;-0.084;2022-08-01T14:03:47;28.20;99.90
35457;DHT22;21575;51.538;-0.084;2022-08-01T14:06:13;28.20;99.90
35457;DHT22;21575;51.538;-0.084;2022-08-01T14:08:42;28.30;99.90
35457;DHT22;21575;51.538;-0.084;2022-08-01T14:11:08;28.30;99.90
35457;DHT22;21575;51.538;-0.084;2022-08-01T14:13:34;28.40;99.90
35457;DHT22;21575;51.538;-0.084;2022-08-01T14:15:59;28.40;99.90
35457;DHT22;21575;51.538;-0.084;2022-08-01T14:18:25;28.30;99.90
35457;DHT22;21575;51.538;-0.084;2022-08-01T14:20:51;28.40;99.90
35457;DHT22;21575;51.538;-0.084;2022-08-01T14:23:17;28.50;99.90
35457;DHT22;21575;51.538;-0.084;2022-08-01T14:25:43;28.60;99.90
35457;DHT22;21575;51.538;-0.084;2022-08-01T14:28:09;28.50;99.90
35457;DHT22;21575;51.538;-0.084;2022-08-01T14:30:35;28.40;99.90
35457;DHT22;21575;51.538;-0.084;2022-08-01T14:33:01;28.50;99.90
35457;DHT22;21575;51.538;-0.084;2022-08-01T14:35:27;28.60;99.90
35457;DHT22;21575;51.538;-0.084;2022-08-01T14:37:53;28.80;99.90
35457;DHT22;21575;51.538;-0.084;2022-08-01T14:40:18;28.80;99.90
35457;DHT22;21575;51.538;-0.084;2022-08-01T14:42:44;28.80;99.90
35457;DHT22;21575;51.538;-0.084;2022-08-01T14:45:11;28.80;99.90
35457;DHT22;21575;51.538;-0.084;2022-08-01T14:47:39;28.80;99.90
35457;DHT22;21575;51.538;-0.084;2022-08-01T14:50:08;28.80;99.90
35457;DHT22;21575;51.538;-0.084;2022-08-01T14:52:35;28.80;99.90
35457;DHT22;21575;51.538;-0.084;2022-08-01T14:55:01;28.70;99.90
35457;DHT22;21575;51.538;-0.084;2022-08-01T14:57:27;28.70;99.90
35457;DHT22;21575;51.538;-0.084;2022-08-01T14:59:53;28.50;99.90
35457;DHT22;21575;51.538;-0.084;2022-08-01T15:02:18;28.60;99.90
35457;DHT22;21575;51.538;-0.084;2022-08-01T15:04:45;28.60;99.90
35457;DHT22;21575;51.538;-0.084;2022-08-01T15:07:11;28.50;99.90
35457;DHT22;21575;51.538;-0.084;2022-08-01T15:09:37;28.50;99.90
35457;DHT22;21575;51.538;-0.084;2022-08-01T15:12:03;28.50;99.90
35457;DHT22;21575;51.538;-0.084;2022-08-01T15:14:29;28.40;99.90
35457;DHT22;21575;51.538;-0.084;2022-08-01T15:17:17;28.50;99.90
35457;DHT22;21575;51.538;-0.084;2022-08-01T15:19:44;28.40;99.90
35457;DHT22;21575;51.538;-0.084;2022-08-01T15:22:10;28.40;99.90
35457;DHT22;21575;51.538;-0.084;2022-08-01T15:24:36;28.30;99.90
35457;DHT22;21575;51.538;-0.084;2022-08-01T15:27:02;28.30;99.90
35457;DHT22;21575;51.538;-0.084;2022-08-01T15:29:28;28.40;99.90
35457;DHT22;21575;51.538;-0.084;2022-08-01T15:31:53;28.40;99.90
35457;DHT22;21575;51.538;-0.084;2022-08-01T15:34:20;28.40;99.90
35457;DHT22;21575;51.538;-0.084;2022-08-01T15:36:46;28.40;99.90
35457;DHT22;21575;51.538;-0.084;2022-08-01T15:39:12;28.50;99.90
35457;DHT22;21575;51.538;-0.084;2022-08-01T15:41:38;28.50;99.90
35457;DHT22;21575;51.538;-0.084;2022-08-01T15:44:03;28.50;99.90
35457;DHT22;21575;51.538;-0.084;2022-08-01T15:46:29;28.60;99.90
35457;DHT22;21575;51.538;-0.084;2022-08-01T15:48:55;28.70;99.90
35457;DHT22;21575;51.538;-0.084;2022-08-01T15:51:20;28.70;99.90
35457;DHT22;21575;51.538;-0.084;2022-08-01T15:53:46;28.70;99.90
35457;DHT22;21575;51.538;-0.084;2022-08-01T15:56:12;28.70;99.90
35457;DHT22;21575;51.538;-0.084;2022-08-01T15:58:38;28.80;99.90
35457;DHT22;21575;51.538;-0.084;2022-08-01T16:01:04;28.80;99.90